• Join FlightAware (Why Join?)
  • Login
  • US Flag 
04:24AM EDT


 

Airport Tracker/Info


-or-


 

Live Flight TrackerFlight Track Log ✈ ANA1702 ✈ 24-Apr-2013 ✈ RJFF / FUK - RJBB / KIX

Flight Track Log - Related Links

Times and Time Zones

All times are in EDT time to prevent confusion due to time zone crossing. See the ANA1702 flight status page for this flight to view local times or setup timezone preferences in your user account.

Time Position Orientation Groundspeed Altitude Reporting Facility
EDT Latitude Longitude Course Direction KTS MPH feet Rate Location/Type
06:58PM 33.5750 130.4580 147° Southeast 150 173 700  Level FlightAware
06:59PM 33.5550 130.4710 152° Southeast 165 190 2,000 3,000 Climbing FlightAware
06:59PM 33.5390 130.4830 148° Southeast 161 185 3,500 3,420 Climbing FlightAware
06:59PM 33.5360 130.4920 112° Southeast 176 203 4,000 2,400 Climbing FlightAware
07:00PM 33.5380 130.5140 84° East 216 249 4,700 2,220 Climbing FlightAware
07:00PM 33.5420 130.5460 81° East 252 290 5,700 2,460 Climbing FlightAware
07:01PM 33.5500 130.5920 78° East 295 339 7,000 2,880 Climbing FlightAware
07:01PM 33.5570 130.6410 80° East 317 365 8,600 3,660 Climbing FlightAware
07:02PM 33.5540 130.7130 93° East 317 365 11,300 3,780 Climbing FlightAware
07:02PM 33.5450 130.7830 99° East 342 394 13,700 3,660 Climbing FlightAware
07:03PM 33.5330 130.8790 99° East 373 429 16,500 3,600 Climbing FlightAware
07:04PM 33.5380 130.9650 86° East 390 449 18,800 2,460 Climbing FlightAware
07:04PM 33.5540 131.0540 78° East 434 499 19,800 2,100 Climbing FlightAware
07:05PM 33.5700 131.1510 79° East 455 524 21,600 2,940 Climbing FlightAware
07:06PM 33.5890 131.2650 79° East 465 535 24,000 2,040 Climbing FlightAware
07:07PM 33.6110 131.4000 79° East 457 526 25,000 600 Climbing FlightAware
07:08PM 33.6300 131.5150 79° East 454 522 25,000  Level FlightAware
07:08PM 33.6500 131.6120 76° East 453 521 25,000  Level FlightAware
07:09PM 33.6690 131.6980 75° East 454 522 25,000  Level FlightAware
07:10PM 33.6920 131.8080 76° East 457 526 25,000  Level FlightAware
07:10PM 33.7160 131.9240 76° East 452 520 25,000  Level FlightAware
07:11PM 33.7370 132.0240 76° East 453 521 25,000  Level FlightAware
07:12PM 33.7570 132.1220 76° East 455 524 25,000  Level FlightAware
07:12PM 33.7800 132.2340 76° East 462 532 25,000  Level FlightAware
07:13PM 33.8000 132.3330 76° East 456 525 25,000  Level FlightAware
07:14PM 33.8230 132.4420 76° East 450 518 25,000  Level FlightAware
07:15PM 33.8420 132.5400 77° East 450 518 25,000  Level FlightAware
07:15PM 33.8620 132.6370 76° East 453 521 25,000  Level FlightAware
07:16PM 33.8840 132.7470 76° East 453 521 25,000  Level FlightAware
07:17PM 33.9080 132.8620 76° East 452 520 25,000  Level FlightAware
07:18PM 33.9330 132.9910 77° East 452 520 25,000  Level FlightAware
07:18PM 33.9510 133.0800 76° East 451 519 25,000 -120 Level FlightAware
07:19PM 33.9790 133.2240 77° East 451 519 24,900 -960 Descending FlightAware
07:20PM 33.9970 133.3130 76° East 461 531 23,500 -2,760 Descending FlightAware
07:21PM 34.0200 133.4350 77° East 467 537 21,000 -2,520 Descending FlightAware
07:21PM 34.0410 133.5380 76° East 447 514 19,800 -1,980 Descending FlightAware
07:22PM 34.0570 133.6260 78° East 435 501 18,400 -2,280 Descending FlightAware
07:23PM 34.0770 133.7290 77° East 431 496 16,600 -2,040 Descending FlightAware
07:24PM 34.1160 133.8540 69° East 421 484 15,000 -1,500 Descending FlightAware
07:24PM 34.1490 133.9440 66° East 413 475 14,300 -1,140 Descending FlightAware
07:25PM 34.1830 134.0360 66° East 408 470 13,400 -1,020 Descending FlightAware
07:26PM 34.2110 134.1130 66° East 387 445 12,900 -780 Descending FlightAware
07:26PM 34.2430 134.1980 65° Northeast 362 417 12,300 -1,020 Descending FlightAware
07:27PM 34.2760 134.2880 66° East 357 411 11,400 -1,140 Descending FlightAware
07:28PM 34.3020 134.3580 66° East 353 406 10,700 -1,320 Descending FlightAware
07:28PM 34.3190 134.4050 66° East 347 399 9,900 -1,740 Descending FlightAware
07:28PM 34.3250 134.4230 68° East 347 399 9,700 -1,200 Descending FlightAware
07:29PM 34.3460 134.4800 66° East 334 384 9,100 -1,020 Descending FlightAware
07:30PM 34.3650 134.5330 67° East 334 384 8,600 -1,020 Descending FlightAware
07:30PM 34.3810 134.5750 65° Northeast 332 382 8,200 -1,020 Descending FlightAware
07:30PM 34.3990 134.6250 66° East 327 376 7,700 -960 Descending FlightAware
07:31PM 34.4060 134.6460 68° East 325 374 7,500 -900 Descending FlightAware
07:31PM 34.4230 134.6910 65° Northeast 319 367 7,100 -1,020 Descending FlightAware
07:32PM 34.4390 134.7370 67° East 309 356 6,600 -1,080 Descending FlightAware
07:32PM 34.4490 134.7640 66° East 308 354 6,300 -1,080 Descending FlightAware
07:32PM 34.4640 134.8040 66° East 306 352 5,900 -900 Descending FlightAware
07:33PM 34.4800 134.8490 67° East 299 344 5,500 -900 Descending FlightAware
07:33PM 34.4950 134.8900 66° East 287 330 5,100 -1,200 Descending FlightAware
07:33PM 34.5020 134.9110 68° East 282 325 4,700 -1,380 Descending FlightAware
07:34PM 34.5170 134.9530 67° East 279 321 4,100 -660 Descending FlightAware
07:34PM 34.5310 134.9910 66° East 284 327 4,100 -120 Level FlightAware
07:35PM 34.5460 135.0350 68° East 263 303 4,000  Descending FlightAware
07:35PM 34.5600 135.0730 66° East 246 283 4,100  Climbing FlightAware
07:36PM 34.5710 135.1050 67° East 242 278 4,000 -120 Descending FlightAware
07:36PM 34.5850 135.1420 65° Northeast 239 275 4,000 120 Level FlightAware
07:37PM 34.5920 135.1610 66° East 238 274 4,100 120 Climbing FlightAware
07:37PM 34.6020 135.1930 69° East 235 270 4,100 -240 Level FlightAware
07:37PM 34.6060 135.2200 80° East 225 259 3,900 -840 Descending FlightAware
07:38PM 34.6050 135.2670 91° East 218 251 3,300 -1,140 Descending FlightAware
07:38PM 34.6050 135.2930 90° East 215 247 2,800 -720 Descending FlightAware
07:39PM 34.6040 135.3250 92° East 203 234 2,700 -360 Descending FlightAware
07:39PM 34.6000 135.3560 99° East 176 203 2,500 -420 Descending FlightAware
07:40PM 34.5920 135.3680 129° Southeast 155 178 2,400 -600 Descending FlightAware
07:40PM 34.5830 135.3750 147° Southeast 146 168 2,200 -720 Descending FlightAware
07:40PM 34.5710 135.3780 168° South 137 158 2,000 -300 Descending FlightAware
07:40PM 34.5590 135.3760 188° South 136 157 2,000 -240 Level FlightAware
07:41PM 34.5410 135.3670 202° Southwest 134 154 1,800 -540 Descending FlightAware
07:41PM 34.5230 135.3580 202° Southwest 139 160 1,500 -600 Descending FlightAware
07:42PM 34.5110 135.3520 202° Southwest 129 148 1,300 -360 Descending FlightAware
07:42PM 34.4950 135.3430 205° Southwest 130 150 1,200  Descending FlightAware
07:43PM 34.4840 135.3280 228° Southwest 127 146 1,300 60 Climbing FlightAware
07:43PM 34.4700 135.3080 230° Southwest 122 140 1,300  Level FlightAware
07:46PM 34.4273 135.2441 231° Southwest  Level Estimated
07:47PM 34.4273 135.2441 158° South  Level Estimated
07:48PM 34.4273 135.2441 158° South  Level Estimated
07:49PM 34.4273 135.2441 158° South  Level Estimated
07:50PM 34.4273 135.2441 158° South  Level Estimated